Hazelwood, Ohio
Current Conditions -  °F | °C
As of 6:53 AM on Wednesday 26 Nov 2014 (Local Time) from KLUK Reporting Station
Clear Clear  
Wind Chill: 19°   Ceiling: Unl
Heat Index: 27°   Visibility: 9mi
Dew Point: 23°   Wind: 7mph
Humidity: 85%   Direction: 10°N
Pressure: 30.13"   Gusts: NA
Location:  39.2437°N, 84.3529°W
Report Text: KLUK 261153Z 01006KT 9SM CLR M03/M05 A3013 RMK AO2 SLP207 T10281050 10000 21044 56011
Loading
Personal Weather Stations






























Interactive Weather Map New forecast layout! Learn more

10-Day Weather Forecast

Advertisements
Track Severe Weather on mobile